sensor_id;sensor_type;location;lat;lon;timestamp;P1;P2;P0
49914;PMS5003;35806;47.958;13.158;2023-05-14T00:00:28;38;36;
49914;PMS5003;35806;47.958;13.158;2023-05-14T00:02:56;29;28;
49914;PMS5003;35806;47.958;13.158;2023-05-14T00:05:24;33;31;
49914;PMS5003;35806;47.958;13.158;2023-05-14T00:07:52;31;31;
49914;PMS5003;35806;47.958;13.158;2023-05-14T00:10:19;34;30;
49914;PMS5003;35806;47.958;13.158;2023-05-14T00:12:47;35;30;
49914;PMS5003;35806;47.958;13.158;2023-05-14T00:15:14;33;31;
49914;PMS5003;35806;47.958;13.158;2023-05-14T00:17:42;29;27;
49914;PMS5003;35806;47.958;13.158;2023-05-14T00:20:09;30;26;
49914;PMS5003;35806;47.958;13.158;2023-05-14T00:22:37;30;29;
49914;PMS5003;35806;47.958;13.158;2023-05-14T00:25:06;33;30;
49914;PMS5003;35806;47.958;13.158;2023-05-14T00:27:35;34;33;
49914;PMS5003;35806;47.958;13.158;2023-05-14T00:30:03;38;35;
49914;PMS5003;35806;47.958;13.158;2023-05-14T00:32:31;39;34;
49914;PMS5003;35806;47.958;13.158;2023-05-14T00:34:58;33;29;
49914;PMS5003;35806;47.958;13.158;2023-05-14T00:37:31;32;30;
49914;PMS5003;35806;47.958;13.158;2023-05-14T00:39:58;33;33;
49914;PMS5003;35806;47.958;13.158;2023-05-14T00:42:26;34;31;
49914;PMS5003;35806;47.958;13.158;2023-05-14T00:44:53;33;30;
49914;PMS5003;35806;47.958;13.158;2023-05-14T00:47:21;29;26;
49914;PMS5003;35806;47.958;13.158;2023-05-14T00:49:49;31;30;
49914;PMS5003;35806;47.958;13.158;2023-05-14T00:52:17;29;29;
49914;PMS5003;35806;47.958;13.158;2023-05-14T00:54:44;34;30;
49914;PMS5003;35806;47.958;13.158;2023-05-14T00:57:13;36;30;
49914;PMS5003;35806;47.958;13.158;2023-05-14T00:59:40;27;26;
49914;PMS5003;35806;47.958;13.158;2023-05-14T01:15:37;31;28;
49914;PMS5003;35806;47.958;13.158;2023-05-14T01:18:07;30;25;
49914;PMS5003;35806;47.958;13.158;2023-05-14T01:20:36;31;30;
49914;PMS5003;35806;47.958;13.158;2023-05-14T01:23:03;34;29;
49914;PMS5003;35806;47.958;13.158;2023-05-14T01:25:30;36;32;
49914;PMS5003;35806;47.958;13.158;2023-05-14T01:27:58;38;35;
49914;PMS5003;35806;47.958;13.158;2023-05-14T01:30:33;36;31;
49914;PMS5003;35806;47.958;13.158;2023-05-14T01:33:04;38;34;
49914;PMS5003;35806;47.958;13.158;2023-05-14T01:35:35;32;27;
49914;PMS5003;35806;47.958;13.158;2023-05-14T01:38:03;26;24;
49914;PMS5003;35806;47.958;13.158;2023-05-14T01:40:33;36;32;
49914;PMS5003;35806;47.958;13.158;2023-05-14T01:43:02;36;33;
49914;PMS5003;35806;47.958;13.158;2023-05-14T01:45:30;35;31;
49914;PMS5003;35806;47.958;13.158;2023-05-14T01:48:00;35;33;
49914;PMS5003;35806;47.958;13.158;2023-05-14T01:50:28;36;34;
49914;PMS5003;35806;47.958;13.158;2023-05-14T01:52:55;35;33;
49914;PMS5003;35806;47.958;13.158;2023-05-14T01:55:22;37;32;
49914;PMS5003;35806;47.958;13.158;2023-05-14T01:57:49;38;34;
49914;PMS5003;35806;47.958;13.158;2023-05-14T02:00:17;35;33;
49914;PMS5003;35806;47.958;13.158;2023-05-14T02:02:44;42;40;
49914;PMS5003;35806;47.958;13.158;2023-05-14T02:05:11;35;32;
49914;PMS5003;35806;47.958;13.158;2023-05-14T02:07:38;37;33;
49914;PMS5003;35806;47.958;13.158;2023-05-14T02:10:06;33;31;
49914;PMS5003;35806;47.958;13.158;2023-05-14T02:12:34;32;29;
49914;PMS5003;35806;47.958;13.158;2023-05-14T02:15:02;39;36;
49914;PMS5003;35806;47.958;13.158;2023-05-14T02:17:29;42;35;
49914;PMS5003;35806;47.958;13.158;2023-05-14T02:19:57;34;33;
49914;PMS5003;35806;47.958;13.158;2023-05-14T02:22:24;30;28;
49914;PMS5003;35806;47.958;13.158;2023-05-14T02:24:51;36;32;
49914;PMS5003;35806;47.958;13.158;2023-05-14T02:27:18;31;27;
49914;PMS5003;35806;47.958;13.158;2023-05-14T02:29:45;32;30;
49914;PMS5003;35806;47.958;13.158;2023-05-14T02:32:12;29;29;
49914;PMS5003;35806;47.958;13.158;2023-05-14T02:34:39;33;29;
49914;PMS5003;35806;47.958;13.158;2023-05-14T02:37:06;30;28;
49914;PMS5003;35806;47.958;13.158;2023-05-14T02:39:32;26;26;
49914;PMS5003;35806;47.958;13.158;2023-05-14T02:42:00;29;25;
49914;PMS5003;35806;47.958;13.158;2023-05-14T02:44:27;27;26;
49914;PMS5003;35806;47.958;13.158;2023-05-14T02:46:54;31;27;
49914;PMS5003;35806;47.958;13.158;2023-05-14T02:49:21;34;31;
49914;PMS5003;35806;47.958;13.158;2023-05-14T02:51:48;29;27;
49914;PMS5003;35806;47.958;13.158;2023-05-14T02:54:15;27;26;
49914;PMS5003;35806;47.958;13.158;2023-05-14T02:56:43;29;29;
49914;PMS5003;35806;47.958;13.158;2023-05-14T02:59:10;23;23;
49914;PMS5003;35806;47.958;13.158;2023-05-14T03:01:37;23;23;
49914;PMS5003;35806;47.958;13.158;2023-05-14T03:04:05;28;27;
49914;PMS5003;35806;47.958;13.158;2023-05-14T03:06:33;26;24;
49914;PMS5003;35806;47.958;13.158;2023-05-14T03:09:00;22;22;
49914;PMS5003;35806;47.958;13.158;2023-05-14T03:11:27;26;25;
49914;PMS5003;35806;47.958;13.158;2023-05-14T03:13:55;29;28;
49914;PMS5003;35806;47.958;13.158;2023-05-14T03:16:22;25;24;
49914;PMS5003;35806;47.958;13.158;2023-05-14T03:18:49;21;20;
49914;PMS5003;35806;47.958;13.158;2023-05-14T03:21:17;20;17;
49914;PMS5003;35806;47.958;13.158;2023-05-14T03:23:43;25;22;
49914;PMS5003;35806;47.958;13.158;2023-05-14T03:26:11;28;26;
49914;PMS5003;35806;47.958;13.158;2023-05-14T03:28:38;27;26;
49914;PMS5003;35806;47.958;13.158;2023-05-14T03:31:06;22;22;
49914;PMS5003;35806;47.958;13.158;2023-05-14T03:33:33;25;23;
49914;PMS5003;35806;47.958;13.158;2023-05-14T03:36:01;23;21;
49914;PMS5003;35806;47.958;13.158;2023-05-14T03:38:29;25;22;
49914;PMS5003;35806;47.958;13.158;2023-05-14T03:40:56;30;26;
49914;PMS5003;35806;47.958;13.158;2023-05-14T03:43:23;24;23;
49914;PMS5003;35806;47.958;13.158;2023-05-14T03:45:50;25;23;
49914;PMS5003;35806;47.958;13.158;2023-05-14T03:48:18;36;35;
49914;PMS5003;35806;47.958;13.158;2023-05-14T03:50:45;28;27;
49914;PMS5003;35806;47.958;13.158;2023-05-14T03:53:12;25;24;
49914;PMS5003;35806;47.958;13.158;2023-05-14T03:55:39;24;24;
49914;PMS5003;35806;47.958;13.158;2023-05-14T03:58:06;28;26;
49914;PMS5003;35806;47.958;13.158;2023-05-14T04:00:33;29;27;
49914;PMS5003;35806;47.958;13.158;2023-05-14T04:03:01;32;28;
49914;PMS5003;35806;47.958;13.158;2023-05-14T04:05:27;25;25;
49914;PMS5003;35806;47.958;13.158;2023-05-14T04:07:55;29;29;
49914;PMS5003;35806;47.958;13.158;2023-05-14T04:10:22;27;25;
49914;PMS5003;35806;47.958;13.158;2023-05-14T04:12:50;29;28;
49914;PMS5003;35806;47.958;13.158;2023-05-14T04:15:17;26;23;
49914;PMS5003;35806;47.958;13.158;2023-05-14T04:17:44;26;26;
49914;PMS5003;35806;47.958;13.158;2023-05-14T04:20:11;30;28;
49914;PMS5003;35806;47.958;13.158;2023-05-14T04:22:39;29;25;
49914;PMS5003;35806;47.958;13.158;2023-05-14T04:25:07;26;22;
49914;PMS5003;35806;47.958;13.158;2023-05-14T04:27:34;30;28;
49914;PMS5003;35806;47.958;13.158;2023-05-14T04:30:02;24;20;
49914;PMS5003;35806;47.958;13.158;2023-05-14T04:32:30;26;25;
49914;PMS5003;35806;47.958;13.158;2023-05-14T04:34:57;22;21;
49914;PMS5003;35806;47.958;13.158;2023-05-14T04:37:24;25;25;
49914;PMS5003;35806;47.958;13.158;2023-05-14T04:39:51;19;18;
49914;PMS5003;35806;47.958;13.158;2023-05-14T04:42:19;23;23;
49914;PMS5003;35806;47.958;13.158;2023-05-14T04:44:45;26;23;
49914;PMS5003;35806;47.958;13.158;2023-05-14T04:47:13;24;23;
49914;PMS5003;35806;47.958;13.158;2023-05-14T04:49:40;20;18;
49914;PMS5003;35806;47.958;13.158;2023-05-14T04:52:07;24;23;
49914;PMS5003;35806;47.958;13.158;2023-05-14T04:54:35;19;19;
49914;PMS5003;35806;47.958;13.158;2023-05-14T04:57:03;25;25;
49914;PMS5003;35806;47.958;13.158;2023-05-14T04:59:31;22;22;
49914;PMS5003;35806;47.958;13.158;2023-05-14T05:02:03;19;17;
49914;PMS5003;35806;47.958;13.158;2023-05-14T05:04:30;17;17;
49914;PMS5003;35806;47.958;13.158;2023-05-14T05:07:03;24;21;
49914;PMS5003;35806;47.958;13.158;2023-05-14T05:09:30;17;17;
49914;PMS5003;35806;47.958;13.158;2023-05-14T05:11:59;22;16;
49914;PMS5003;35806;47.958;13.158;2023-05-14T05:14:27;16;15;
49914;PMS5003;35806;47.958;13.158;2023-05-14T05:16:55;22;21;
49914;PMS5003;35806;47.958;13.158;2023-05-14T05:19:23;16;16;
49914;PMS5003;35806;47.958;13.158;2023-05-14T05:21:51;23;19;
49914;PMS5003;35806;47.958;13.158;2023-05-14T05:24:18;16;15;
49914;PMS5003;35806;47.958;13.158;2023-05-14T05:26:45;21;19;
49914;PMS5003;35806;47.958;13.158;2023-05-14T05:29:13;22;19;
49914;PMS5003;35806;47.958;13.158;2023-05-14T05:31:40;15;15;
49914;PMS5003;35806;47.958;13.158;2023-05-14T05:34:12;19;18;
49914;PMS5003;35806;47.958;13.158;2023-05-14T05:36:39;18;14;
49914;PMS5003;35806;47.958;13.158;2023-05-14T05:39:07;18;16;
49914;PMS5003;35806;47.958;13.158;2023-05-14T05:41:35;18;15;
49914;PMS5003;35806;47.958;13.158;2023-05-14T05:44:03;18;16;
49914;PMS5003;35806;47.958;13.158;2023-05-14T05:46:30;17;16;
49914;PMS5003;35806;47.958;13.158;2023-05-14T05:48:58;19;19;
49914;PMS5003;35806;47.958;13.158;2023-05-14T05:51:25;19;18;
49914;PMS5003;35806;47.958;13.158;2023-05-14T05:53:52;17;17;
49914;PMS5003;35806;47.958;13.158;2023-05-14T05:56:19;16;15;
49914;PMS5003;35806;47.958;13.158;2023-05-14T05:58:47;16;16;
49914;PMS5003;35806;47.958;13.158;2023-05-14T06:01:14;17;17;
49914;PMS5003;35806;47.958;13.158;2023-05-14T06:03:42;15;15;
49914;PMS5003;35806;47.958;13.158;2023-05-14T06:06:10;15;13;
49914;PMS5003;35806;47.958;13.158;2023-05-14T06:08:38;16;15;
49914;PMS5003;35806;47.958;13.158;2023-05-14T06:11:05;14;13;
49914;PMS5003;35806;47.958;13.158;2023-05-14T06:13:34;16;14;
49914;PMS5003;35806;47.958;13.158;2023-05-14T06:16:03;15;13;
49914;PMS5003;35806;47.958;13.158;2023-05-14T06:18:30;13;13;
49914;PMS5003;35806;47.958;13.158;2023-05-14T06:20:57;17;14;
49914;PMS5003;35806;47.958;13.158;2023-05-14T06:23:25;15;13;
49914;PMS5003;35806;47.958;13.158;2023-05-14T06:25:52;16;14;
49914;PMS5003;35806;47.958;13.158;2023-05-14T06:28:20;15;15;
49914;PMS5003;35806;47.958;13.158;2023-05-14T06:30:48;18;17;
49914;PMS5003;35806;47.958;13.158;2023-05-14T06:33:16;17;15;
49914;PMS5003;35806;47.958;13.158;2023-05-14T06:35:43;15;14;
49914;PMS5003;35806;47.958;13.158;2023-05-14T06:38:10;13;13;
49914;PMS5003;35806;47.958;13.158;2023-05-14T06:40:39;15;14;
49914;PMS5003;35806;47.958;13.158;2023-05-14T06:43:11;14;11;
49914;PMS5003;35806;47.958;13.158;2023-05-14T06:45:38;13;12;
49914;PMS5003;35806;47.958;13.158;2023-05-14T06:48:06;15;12;
49914;PMS5003;35806;47.958;13.158;2023-05-14T06:50:34;16;15;
49914;PMS5003;35806;47.958;13.158;2023-05-14T06:53:02;15;13;
49914;PMS5003;35806;47.958;13.158;2023-05-14T06:55:29;13;13;
49914;PMS5003;35806;47.958;13.158;2023-05-14T06:57:57;15;15;
49914;PMS5003;35806;47.958;13.158;2023-05-14T07:00:24;14;13;
49914;PMS5003;35806;47.958;13.158;2023-05-14T07:02:52;15;14;
49914;PMS5003;35806;47.958;13.158;2023-05-14T07:05:39;15;15;
49914;PMS5003;35806;47.958;13.158;2023-05-14T07:08:07;14;14;
49914;PMS5003;35806;47.958;13.158;2023-05-14T07:10:34;13;11;
49914;PMS5003;35806;47.958;13.158;2023-05-14T07:13:02;18;14;
49914;PMS5003;35806;47.958;13.158;2023-05-14T07:15:29;19;15;
49914;PMS5003;35806;47.958;13.158;2023-05-14T07:17:56;15;15;
49914;PMS5003;35806;47.958;13.158;2023-05-14T07:20:24;15;13;
49914;PMS5003;35806;47.958;13.158;2023-05-14T07:22:51;13;13;
49914;PMS5003;35806;47.958;13.158;2023-05-14T07:25:18;16;15;
49914;PMS5003;35806;47.958;13.158;2023-05-14T07:27:46;14;13;
49914;PMS5003;35806;47.958;13.158;2023-05-14T07:30:13;13;12;
49914;PMS5003;35806;47.958;13.158;2023-05-14T07:32:41;18;17;
49914;PMS5003;35806;47.958;13.158;2023-05-14T07:35:08;17;16;
49914;PMS5003;35806;47.958;13.158;2023-05-14T07:37:36;18;18;
49914;PMS5003;35806;47.958;13.158;2023-05-14T07:40:04;22;20;
49914;PMS5003;35806;47.958;13.158;2023-05-14T07:42:32;16;16;
49914;PMS5003;35806;47.958;13.158;2023-05-14T07:45:04;16;16;
49914;PMS5003;35806;47.958;13.158;2023-05-14T07:47:33;20;20;
49914;PMS5003;35806;47.958;13.158;2023-05-14T07:50:10;23;19;
49914;PMS5003;35806;47.958;13.158;2023-05-14T07:52:37;19;14;
49914;PMS5003;35806;47.958;13.158;2023-05-14T07:55:06;17;17;
49914;PMS5003;35806;47.958;13.158;2023-05-14T07:57:33;18;16;
49914;PMS5003;35806;47.958;13.158;2023-05-14T08:00:00;21;16;
49914;PMS5003;35806;47.958;13.158;2023-05-14T08:02:28;18;15;
49914;PMS5003;35806;47.958;13.158;2023-05-14T08:04:55;19;18;
49914;PMS5003;35806;47.958;13.158;2023-05-14T08:07:23;20;19;
49914;PMS5003;35806;47.958;13.158;2023-05-14T08:09:50;18;16;
49914;PMS5003;35806;47.958;13.158;2023-05-14T08:12:18;13;13;
49914;PMS5003;35806;47.958;13.158;2023-05-14T08:14:46;16;15;
49914;PMS5003;35806;47.958;13.158;2023-05-14T08:17:13;19;18;
49914;PMS5003;35806;47.958;13.158;2023-05-14T08:19:40;15;14;
49914;PMS5003;35806;47.958;13.158;2023-05-14T08:22:08;14;14;
49914;PMS5003;35806;47.958;13.158;2023-05-14T08:24:35;20;19;
49914;PMS5003;35806;47.958;13.158;2023-05-14T08:27:05;21;21;
49914;PMS5003;35806;47.958;13.158;2023-05-14T08:29:32;29;27;
49914;PMS5003;35806;47.958;13.158;2023-05-14T08:31:59;26;24;
49914;PMS5003;35806;47.958;13.158;2023-05-14T08:34:27;28;27;
49914;PMS5003;35806;47.958;13.158;2023-05-14T08:36:54;32;27;
49914;PMS5003;35806;47.958;13.158;2023-05-14T08:39:22;30;28;
49914;PMS5003;35806;47.958;13.158;2023-05-14T08:41:50;35;28;
49914;PMS5003;35806;47.958;13.158;2023-05-14T08:44:17;29;27;
49914;PMS5003;35806;47.958;13.158;2023-05-14T08:46:45;29;28;
49914;PMS5003;35806;47.958;13.158;2023-05-14T08:49:16;31;26;
49914;PMS5003;35806;47.958;13.158;2023-05-14T08:51:51;24;24;
49914;PMS5003;35806;47.958;13.158;2023-05-14T08:54:30;31;26;
49914;PMS5003;35806;47.958;13.158;2023-05-14T08:56:58;31;28;
49914;PMS5003;35806;47.958;13.158;2023-05-14T08:59:27;32;31;
49914;PMS5003;35806;47.958;13.158;2023-05-14T09:01:55;35;27;
49914;PMS5003;35806;47.958;13.158;2023-05-14T09:04:28;28;26;
49914;PMS5003;35806;47.958;13.158;2023-05-14T09:06:58;32;29;
49914;PMS5003;35806;47.958;13.158;2023-05-14T09:09:27;26;26;
49914;PMS5003;35806;47.958;13.158;2023-05-14T09:11:54;28;25;
49914;PMS5003;35806;47.958;13.158;2023-05-14T09:14:27;25;25;
49914;PMS5003;35806;47.958;13.158;2023-05-14T09:17:27;28;26;
49914;PMS5003;35806;47.958;13.158;2023-05-14T09:19:54;21;19;
49914;PMS5003;35806;47.958;13.158;2023-05-14T09:22:23;27;24;
49914;PMS5003;35806;47.958;13.158;2023-05-14T09:25:00;29;24;
49914;PMS5003;35806;47.958;13.158;2023-05-14T09:27:30;19;19;
49914;PMS5003;35806;47.958;13.158;2023-05-14T09:30:24;20;20;
49914;PMS5003;35806;47.958;13.158;2023-05-14T09:32:52;19;19;
49914;PMS5003;35806;47.958;13.158;2023-05-14T09:35:25;21;18;
49914;PMS5003;35806;47.958;13.158;2023-05-14T09:37:53;28;21;
49914;PMS5003;35806;47.958;13.158;2023-05-14T09:40:21;22;19;
49914;PMS5003;35806;47.958;13.158;2023-05-14T09:42:49;24;23;
49914;PMS5003;35806;47.958;13.158;2023-05-14T09:45:17;23;20;
49914;PMS5003;35806;47.958;13.158;2023-05-14T09:47:45;21;20;
49914;PMS5003;35806;47.958;13.158;2023-05-14T09:50:13;17;17;
49914;PMS5003;35806;47.958;13.158;2023-05-14T09:52:45;22;19;
49914;PMS5003;35806;47.958;13.158;2023-05-14T09:55:12;22;20;
49914;PMS5003;35806;47.958;13.158;2023-05-14T09:57:40;20;18;
49914;PMS5003;35806;47.958;13.158;2023-05-14T10:00:07;22;22;
49914;PMS5003;35806;47.958;13.158;2023-05-14T10:02:36;21;21;
49914;PMS5003;35806;47.958;13.158;2023-05-14T10:05:10;22;20;
49914;PMS5003;35806;47.958;13.158;2023-05-14T10:07:41;21;19;
49914;PMS5003;35806;47.958;13.158;2023-05-14T10:10:11;20;18;
49914;PMS5003;35806;47.958;13.158;2023-05-14T10:12:42;19;18;
49914;PMS5003;35806;47.958;13.158;2023-05-14T10:15:16;22;21;
49914;PMS5003;35806;47.958;13.158;2023-05-14T10:17:51;20;18;
49914;PMS5003;35806;47.958;13.158;2023-05-14T10:20:23;25;24;
49914;PMS5003;35806;47.958;13.158;2023-05-14T10:22:53;29;25;
49914;PMS5003;35806;47.958;13.158;2023-05-14T10:25:26;22;20;
49914;PMS5003;35806;47.958;13.158;2023-05-14T10:27:53;25;21;
49914;PMS5003;35806;47.958;13.158;2023-05-14T10:30:21;24;21;
49914;PMS5003;35806;47.958;13.158;2023-05-14T10:32:49;19;19;
49914;PMS5003;35806;47.958;13.158;2023-05-14T10:35:54;20;19;
49914;PMS5003;35806;47.958;13.158;2023-05-14T10:38:25;24;24;
49914;PMS5003;35806;47.958;13.158;2023-05-14T10:40:55;20;19;
49914;PMS5003;35806;47.958;13.158;2023-05-14T10:43:25;18;18;
49914;PMS5003;35806;47.958;13.158;2023-05-14T10:45:54;22;22;
49914;PMS5003;35806;47.958;13.158;2023-05-14T10:48:22;23;22;
49914;PMS5003;35806;47.958;13.158;2023-05-14T10:50:51;23;22;
49914;PMS5003;35806;47.958;13.158;2023-05-14T10:53:19;21;19;
49914;PMS5003;35806;47.958;13.158;2023-05-14T10:55:56;19;19;
49914;PMS5003;35806;47.958;13.158;2023-05-14T10:58:23;21;20;
49914;PMS5003;35806;47.958;13.158;2023-05-14T11:00:51;16;13;
49914;PMS5003;35806;47.958;13.158;2023-05-14T11:03:21;15;15;
49914;PMS5003;35806;47.958;13.158;2023-05-14T11:05:48;16;16;
49914;PMS5003;35806;47.958;13.158;2023-05-14T11:08:21;18;17;
49914;PMS5003;35806;47.958;13.158;2023-05-14T11:10:51;18;15;
49914;PMS5003;35806;47.958;13.158;2023-05-14T11:13:20;16;16;
49914;PMS5003;35806;47.958;13.158;2023-05-14T11:15:47;20;20;
49914;PMS5003;35806;47.958;13.158;2023-05-14T11:18:24;24;23;
49914;PMS5003;35806;47.958;13.158;2023-05-14T11:20:52;17;16;
49914;PMS5003;35806;47.958;13.158;2023-05-14T11:23:21;19;19;
49914;PMS5003;35806;47.958;13.158;2023-05-14T11:25:50;25;24;
49914;PMS5003;35806;47.958;13.158;2023-05-14T11:28:17;19;19;
49914;PMS5003;35806;47.958;13.158;2023-05-14T11:30:46;21;21;
49914;PMS5003;35806;47.958;13.158;2023-05-14T11:33:13;18;18;
49914;PMS5003;35806;47.958;13.158;2023-05-14T11:35:41;25;22;
49914;PMS5003;35806;47.958;13.158;2023-05-14T11:38:12;22;20;
49914;PMS5003;35806;47.958;13.158;2023-05-14T11:40:40;21;19;
49914;PMS5003;35806;47.958;13.158;2023-05-14T11:43:08;17;17;
49914;PMS5003;35806;47.958;13.158;2023-05-14T11:45:36;15;15;
49914;PMS5003;35806;47.958;13.158;2023-05-14T11:48:10;11;11;
49914;PMS5003;35806;47.958;13.158;2023-05-14T11:50:38;17;16;
49914;PMS5003;35806;47.958;13.158;2023-05-14T11:53:10;16;15;
49914;PMS5003;35806;47.958;13.158;2023-05-14T11:55:38;15;15;
49914;PMS5003;35806;47.958;13.158;2023-05-14T11:58:05;18;17;
49914;PMS5003;35806;47.958;13.158;2023-05-14T12:00:33;17;17;
49914;PMS5003;35806;47.958;13.158;2023-05-14T12:03:00;15;13;
49914;PMS5003;35806;47.958;13.158;2023-05-14T12:05:28;16;16;
49914;PMS5003;35806;47.958;13.158;2023-05-14T12:07:55;23;21;
49914;PMS5003;35806;47.958;13.158;2023-05-14T12:10:22;19;16;
49914;PMS5003;35806;47.958;13.158;2023-05-14T12:12:49;16;15;
49914;PMS5003;35806;47.958;13.158;2023-05-14T12:15:16;20;16;
49914;PMS5003;35806;47.958;13.158;2023-05-14T12:17:48;18;16;
49914;PMS5003;35806;47.958;13.158;2023-05-14T12:20:15;15;15;
49914;PMS5003;35806;47.958;13.158;2023-05-14T12:22:42;22;22;
49914;PMS5003;35806;47.958;13.158;2023-05-14T12:25:11;21;20;
49914;PMS5003;35806;47.958;13.158;2023-05-14T12:27:39;20;18;
49914;PMS5003;35806;47.958;13.158;2023-05-14T12:30:10;20;20;
49914;PMS5003;35806;47.958;13.158;2023-05-14T12:32:38;26;24;
49914;PMS5003;35806;47.958;13.158;2023-05-14T12:35:06;25;25;
49914;PMS5003;35806;47.958;13.158;2023-05-14T12:37:34;23;23;
49914;PMS5003;35806;47.958;13.158;2023-05-14T12:40:02;30;28;
49914;PMS5003;35806;47.958;13.158;2023-05-14T12:42:30;35;33;
49914;PMS5003;35806;47.958;13.158;2023-05-14T12:44:57;30;30;
49914;PMS5003;35806;47.958;13.158;2023-05-14T12:47:24;28;27;
49914;PMS5003;35806;47.958;13.158;2023-05-14T12:49:52;45;37;
49914;PMS5003;35806;47.958;13.158;2023-05-14T12:52:20;31;28;
49914;PMS5003;35806;47.958;13.158;2023-05-14T12:54:53;26;22;
49914;PMS5003;35806;47.958;13.158;2023-05-14T12:57:20;28;28;
49914;PMS5003;35806;47.958;13.158;2023-05-14T12:59:47;18;18;
49914;PMS5003;35806;47.958;13.158;2023-05-14T13:02:15;21;20;
49914;PMS5003;35806;47.958;13.158;2023-05-14T13:04:42;22;22;
49914;PMS5003;35806;47.958;13.158;2023-05-14T13:07:14;24;19;
49914;PMS5003;35806;47.958;13.158;2023-05-14T13:09:41;22;19;
49914;PMS5003;35806;47.958;13.158;2023-05-14T13:12:09;30;25;
49914;PMS5003;35806;47.958;13.158;2023-05-14T13:14:36;16;16;
49914;PMS5003;35806;47.958;13.158;2023-05-14T13:17:04;21;21;
49914;PMS5003;35806;47.958;13.158;2023-05-14T13:19:32;17;17;
49914;PMS5003;35806;47.958;13.158;2023-05-14T13:21:59;14;14;
49914;PMS5003;35806;47.958;13.158;2023-05-14T13:24:26;18;18;
49914;PMS5003;35806;47.958;13.158;2023-05-14T13:26:53;17;15;
49914;PMS5003;35806;47.958;13.158;2023-05-14T13:29:21;11;10;
49914;PMS5003;35806;47.958;13.158;2023-05-14T13:31:48;12;11;
49914;PMS5003;35806;47.958;13.158;2023-05-14T13:34:15;11;11;
49914;PMS5003;35806;47.958;13.158;2023-05-14T13:36:42;13;13;
49914;PMS5003;35806;47.958;13.158;2023-05-14T13:39:10;13;12;
49914;PMS5003;35806;47.958;13.158;2023-05-14T13:41:37;12;11;
49914;PMS5003;35806;47.958;13.158;2023-05-14T13:44:05;13;13;
49914;PMS5003;35806;47.958;13.158;2023-05-14T13:46:32;14;11;
49914;PMS5003;35806;47.958;13.158;2023-05-14T13:49:05;10;10;
49914;PMS5003;35806;47.958;13.158;2023-05-14T13:51:38;10;10;
49914;PMS5003;35806;47.958;13.158;2023-05-14T13:54:06;10;10;
49914;PMS5003;35806;47.958;13.158;2023-05-14T13:56:33;9;8;
49914;PMS5003;35806;47.958;13.158;2023-05-14T13:59:01;9;9;
49914;PMS5003;35806;47.958;13.158;2023-05-14T14:01:28;9;9;
49914;PMS5003;35806;47.958;13.158;2023-05-14T14:03:56;11;11;
49914;PMS5003;35806;47.958;13.158;2023-05-14T14:06:24;10;9;
49914;PMS5003;35806;47.958;13.158;2023-05-14T14:08:52;9;8;
49914;PMS5003;35806;47.958;13.158;2023-05-14T14:11:25;6;6;
49914;PMS5003;35806;47.958;13.158;2023-05-14T14:13:53;6;5;
49914;PMS5003;35806;47.958;13.158;2023-05-14T14:16:20;8;7;
49914;PMS5003;35806;47.958;13.158;2023-05-14T14:18:47;7;7;
49914;PMS5003;35806;47.958;13.158;2023-05-14T14:21:15;6;6;
49914;PMS5003;35806;47.958;13.158;2023-05-14T14:23:43;7;6;
49914;PMS5003;35806;47.958;13.158;2023-05-14T14:26:12;7;7;
49914;PMS5003;35806;47.958;13.158;2023-05-14T14:28:39;5;5;
49914;PMS5003;35806;47.958;13.158;2023-05-14T14:31:08;7;7;
49914;PMS5003;35806;47.958;13.158;2023-05-14T14:33:36;6;6;
49914;PMS5003;35806;47.958;13.158;2023-05-14T14:36:04;6;6;
49914;PMS5003;35806;47.958;13.158;2023-05-14T14:38:31;8;8;
49914;PMS5003;35806;47.958;13.158;2023-05-14T14:40:59;5;5;
49914;PMS5003;35806;47.958;13.158;2023-05-14T14:43:26;5;4;
49914;PMS5003;35806;47.958;13.158;2023-05-14T14:48:23;4;4;
49914;PMS5003;35806;47.958;13.158;2023-05-14T14:51:01;5;5;
49914;PMS5003;35806;47.958;13.158;2023-05-14T14:53:36;4;4;
49914;PMS5003;35806;47.958;13.158;2023-05-14T14:56:05;6;6;
49914;PMS5003;35806;47.958;13.158;2023-05-14T14:58:38;5;4;
49914;PMS5003;35806;47.958;13.158;2023-05-14T15:01:05;6;5;
49914;PMS5003;35806;47.958;13.158;2023-05-14T15:03:33;5;5;
49914;PMS5003;35806;47.958;13.158;2023-05-14T15:06:00;6;6;
49914;PMS5003;35806;47.958;13.158;2023-05-14T15:08:28;6;6;
49914;PMS5003;35806;47.958;13.158;2023-05-14T15:10:54;7;7;
49914;PMS5003;35806;47.958;13.158;2023-05-14T15:13:27;4;4;
49914;PMS5003;35806;47.958;13.158;2023-05-14T15:15:55;6;6;
49914;PMS5003;35806;47.958;13.158;2023-05-14T15:18:22;5;5;
49914;PMS5003;35806;47.958;13.158;2023-05-14T15:20:50;6;6;
49914;PMS5003;35806;47.958;13.158;2023-05-14T15:23:17;5;5;
49914;PMS5003;35806;47.958;13.158;2023-05-14T15:25:45;5;5;
49914;PMS5003;35806;47.958;13.158;2023-05-14T15:28:12;5;5;
49914;PMS5003;35806;47.958;13.158;2023-05-14T15:30:46;5;5;
49914;PMS5003;35806;47.958;13.158;2023-05-14T15:33:13;5;5;
49914;PMS5003;35806;47.958;13.158;2023-05-14T15:35:46;5;5;
49914;PMS5003;35806;47.958;13.158;2023-05-14T15:38:13;8;6;
49914;PMS5003;35806;47.958;13.158;2023-05-14T15:40:45;6;6;
49914;PMS5003;35806;47.958;13.158;2023-05-14T15:43:12;5;4;
49914;PMS5003;35806;47.958;13.158;2023-05-14T15:45:40;5;5;
49914;PMS5003;35806;47.958;13.158;2023-05-14T15:48:10;5;5;
49914;PMS5003;35806;47.958;13.158;2023-05-14T15:50:37;3;3;
49914;PMS5003;35806;47.958;13.158;2023-05-14T15:53:05;6;6;
49914;PMS5003;35806;47.958;13.158;2023-05-14T15:55:31;5;4;
49914;PMS5003;35806;47.958;13.158;2023-05-14T15:57:59;5;5;
49914;PMS5003;35806;47.958;13.158;2023-05-14T16:00:26;6;6;
49914;PMS5003;35806;47.958;13.158;2023-05-14T16:02:54;7;7;
49914;PMS5003;35806;47.958;13.158;2023-05-14T16:05:21;6;6;
49914;PMS5003;35806;47.958;13.158;2023-05-14T16:07:59;5;5;
49914;PMS5003;35806;47.958;13.158;2023-05-14T16:10:26;7;7;
49914;PMS5003;35806;47.958;13.158;2023-05-14T16:12:54;6;6;
49914;PMS5003;35806;47.958;13.158;2023-05-14T16:15:22;5;5;
49914;PMS5003;35806;47.958;13.158;2023-05-14T16:17:50;7;7;
49914;PMS5003;35806;47.958;13.158;2023-05-14T16:20:17;6;6;
49914;PMS5003;35806;47.958;13.158;2023-05-14T16:22:45;6;6;
49914;PMS5003;35806;47.958;13.158;2023-05-14T16:25:12;6;6;
49914;PMS5003;35806;47.958;13.158;2023-05-14T16:27:40;7;7;
49914;PMS5003;35806;47.958;13.158;2023-05-14T16:30:08;6;6;